sensor_id;sensor_type;location;lat;lon;timestamp;pressure;altitude;pressure_sealevel;temperature;humidity
31538;BME280;18147;51.952;6.146;2022-10-23T00:02:21;101378.38;;;10.56;100.00
31538;BME280;18147;51.952;6.146;2022-10-23T00:04:49;101377.56;;;10.54;100.00
31538;BME280;18147;51.952;6.146;2022-10-23T00:07:15;101373.13;;;10.54;100.00
31538;BME280;18147;51.952;6.146;2022-10-23T00:09:41;101366.38;;;10.47;100.00
31538;BME280;18147;51.952;6.146;2022-10-23T00:12:06;101362.59;;;10.35;100.00
31538;BME280;18147;51.952;6.146;2022-10-23T00:14:32;101355.22;;;10.23;100.00
31538;BME280;18147;51.952;6.146;2022-10-23T00:16:57;101358.91;;;10.21;100.00
31538;BME280;18147;51.952;6.146;2022-10-23T00:19:23;101352.88;;;10.17;100.00
31538;BME280;18147;51.952;6.146;2022-10-23T00:21:48;101351.06;;;10.18;100.00
31538;BME280;18147;51.952;6.146;2022-10-23T00:24:14;101343.81;;;10.04;100.00
31538;BME280;18147;51.952;6.146;2022-10-23T00:26:39;101337.75;;;9.84;100.00
31538;BME280;18147;51.952;6.146;2022-10-23T00:29:06;101338.84;;;9.80;100.00
31538;BME280;18147;51.952;6.146;2022-10-23T00:31:33;101337.56;;;9.88;100.00
31538;BME280;18147;51.952;6.146;2022-10-23T00:33:59;101351.97;;;10.01;100.00
31538;BME280;18147;51.952;6.146;2022-10-23T00:36:26;101345.41;;;9.91;100.00
31538;BME280;18147;51.952;6.146;2022-10-23T00:38:51;101339.22;;;9.90;100.00
31538;BME280;18147;51.952;6.146;2022-10-23T00:41:23;101342.66;;;9.92;100.00
31538;BME280;18147;51.952;6.146;2022-10-23T00:43:57;101343.91;;;10.02;100.00
31538;BME280;18147;51.952;6.146;2022-10-23T00:46:23;101341.56;;;9.96;100.00
31538;BME280;18147;51.952;6.146;2022-10-23T00:48:48;101346.66;;;10.01;100.00
31538;BME280;18147;51.952;6.146;2022-10-23T00:51:14;101342.03;;;10.04;100.00
31538;BME280;18147;51.952;6.146;2022-10-23T00:53:40;101347.03;;;10.10;100.00
31538;BME280;18147;51.952;6.146;2022-10-23T00:56:06;101347.03;;;10.10;100.00
31538;BME280;18147;51.952;6.146;2022-10-23T00:58:31;101338.84;;;10.13;100.00
31538;BME280;18147;51.952;6.146;2022-10-23T01:00:57;101333.38;;;10.17;100.00
31538;BME280;18147;51.952;6.146;2022-10-23T01:03:25;101337.94;;;10.15;100.00
31538;BME280;18147;51.952;6.146;2022-10-23T01:11:15;101324.25;;;9.88;100.00
31538;BME280;18147;51.952;6.146;2022-10-23T01:14:00;101321.09;;;9.97;100.00
31538;BME280;18147;51.952;6.146;2022-10-23T01:16:41;101331.22;;;9.90;100.00
31538;BME280;18147;51.952;6.146;2022-10-23T01:19:26;101321.25;;;9.94;100.00
31538;BME280;18147;51.952;6.146;2022-10-23T01:22:11;101326.44;;;9.97;100.00
31538;BME280;18147;51.952;6.146;2022-10-23T01:27:38;101324.44;;;9.84;100.00
31538;BME280;18147;51.952;6.146;2022-10-23T01:30:14;101322.63;;;9.68;100.00
31538;BME280;18147;51.952;6.146;2022-10-23T01:32:55;101330.72;;;9.66;100.00
31538;BME280;18147;51.952;6.146;2022-10-23T01:35:31;101321.28;;;9.76;100.00
31538;BME280;18147;51.952;6.146;2022-10-23T01:38:18;101315.88;;;9.78;100.00
31538;BME280;18147;51.952;6.146;2022-10-23T01:41:02;101307.28;;;9.73;100.00
31538;BME280;18147;51.952;6.146;2022-10-23T01:43:41;101309.56;;;9.63;100.00
31538;BME280;18147;51.952;6.146;2022-10-23T01:46:11;101316.22;;;9.54;100.00
31538;BME280;18147;51.952;6.146;2022-10-23T01:48:42;101309.56;;;9.63;100.00
31538;BME280;18147;51.952;6.146;2022-10-23T01:51:12;101309.69;;;9.77;100.00
31538;BME280;18147;51.952;6.146;2022-10-23T01:53:39;101300.84;;;9.77;100.00
31538;BME280;18147;51.952;6.146;2022-10-23T01:56:14;101300.84;;;9.94;100.00
31538;BME280;18147;51.952;6.146;2022-10-23T01:58:45;101302.88;;;9.89;100.00
31538;BME280;18147;51.952;6.146;2022-10-23T02:01:14;101296.94;;;9.84;100.00
31538;BME280;18147;51.952;6.146;2022-10-23T02:03:47;101285.84;;;9.92;100.00
31538;BME280;18147;51.952;6.146;2022-10-23T02:06:14;101289.47;;;9.91;100.00
31538;BME280;18147;51.952;6.146;2022-10-23T02:08:39;101284.63;;;9.81;100.00
31538;BME280;18147;51.952;6.146;2022-10-23T02:11:08;101284.56;;;9.99;100.00
31538;BME280;18147;51.952;6.146;2022-10-23T02:13:44;101284.41;;;10.02;100.00
31538;BME280;18147;51.952;6.146;2022-10-23T02:21:33;101278.13;;;10.03;100.00
31538;BME280;18147;51.952;6.146;2022-10-23T02:24:12;101273.59;;;10.05;100.00
31538;BME280;18147;51.952;6.146;2022-10-23T02:26:50;101274.00;;;9.97;100.00
31538;BME280;18147;51.952;6.146;2022-10-23T02:29:22;101275.41;;;10.04;100.00
31538;BME280;18147;51.952;6.146;2022-10-23T02:31:49;101274.88;;;9.98;100.00
31538;BME280;18147;51.952;6.146;2022-10-23T02:34:17;101262.63;;;9.78;100.00
31538;BME280;18147;51.952;6.146;2022-10-23T02:36:42;101257.00;;;9.67;100.00
31538;BME280;18147;51.952;6.146;2022-10-23T02:39:08;101260.75;;;9.63;100.00
31538;BME280;18147;51.952;6.146;2022-10-23T02:47:13;101252.09;;;9.59;100.00
31538;BME280;18147;51.952;6.146;2022-10-23T02:50:10;101259.94;;;9.27;100.00
31538;BME280;18147;51.952;6.146;2022-10-23T03:01:09;101262.53;;;9.46;100.00
31538;BME280;18147;51.952;6.146;2022-10-23T03:03:41;101260.00;;;9.43;100.00
31538;BME280;18147;51.952;6.146;2022-10-23T03:06:07;101260.81;;;9.45;100.00
31538;BME280;18147;51.952;6.146;2022-10-23T03:08:48;101253.84;;;9.25;100.00
31538;BME280;18147;51.952;6.146;2022-10-23T03:11:17;101248.75;;;9.21;100.00
31538;BME280;18147;51.952;6.146;2022-10-23T03:13:42;101235.94;;;9.29;100.00
31538;BME280;18147;51.952;6.146;2022-10-23T03:16:09;101233.66;;;9.21;100.00
31538;BME280;18147;51.952;6.146;2022-10-23T03:18:34;101222.91;;;9.23;100.00
31538;BME280;18147;51.952;6.146;2022-10-23T03:21:01;101219.16;;;9.27;100.00
31538;BME280;18147;51.952;6.146;2022-10-23T03:23:27;101217.53;;;9.24;100.00
31538;BME280;18147;51.952;6.146;2022-10-23T03:25:53;101217.03;;;9.33;100.00
31538;BME280;18147;51.952;6.146;2022-10-23T03:28:40;101213.59;;;9.49;100.00
31538;BME280;18147;51.952;6.146;2022-10-23T03:31:05;101208.63;;;9.58;100.00
31538;BME280;18147;51.952;6.146;2022-10-23T03:33:31;101205.28;;;9.55;100.00
31538;BME280;18147;51.952;6.146;2022-10-23T03:36:04;101207.19;;;9.69;100.00
31538;BME280;18147;51.952;6.146;2022-10-23T03:38:31;101193.88;;;9.69;100.00
31538;BME280;18147;51.952;6.146;2022-10-23T03:40:56;101191.66;;;9.77;100.00
31538;BME280;18147;51.952;6.146;2022-10-23T03:43:22;101191.81;;;9.74;100.00
31538;BME280;18147;51.952;6.146;2022-10-23T03:45:47;101193.22;;;9.81;100.00
31538;BME280;18147;51.952;6.146;2022-10-23T03:48:15;101194.59;;;9.88;100.00
31538;BME280;18147;51.952;6.146;2022-10-23T03:50:40;101201.31;;;9.95;100.00
31538;BME280;18147;51.952;6.146;2022-10-23T03:53:05;101194.44;;;10.07;100.00
31538;BME280;18147;51.952;6.146;2022-10-23T03:55:32;101197.72;;;10.12;100.00
31538;BME280;18147;51.952;6.146;2022-10-23T03:57:58;101190.81;;;10.08;100.00
31538;BME280;18147;51.952;6.146;2022-10-23T04:00:23;101188.00;;;9.95;100.00
31538;BME280;18147;51.952;6.146;2022-10-23T04:02:49;101185.22;;;9.81;100.00
31538;BME280;18147;51.952;6.146;2022-10-23T04:05:15;101185.22;;;9.81;100.00
31538;BME280;18147;51.952;6.146;2022-10-23T04:07:50;101174.31;;;9.85;100.00
31538;BME280;18147;51.952;6.146;2022-10-23T04:10:16;101173.47;;;10.17;100.00
31538;BME280;18147;51.952;6.146;2022-10-23T04:12:41;101177.78;;;10.19;100.00
31538;BME280;18147;51.952;6.146;2022-10-23T04:15:07;101175.91;;;10.37;100.00
31538;BME280;18147;51.952;6.146;2022-10-23T04:17:33;101171.94;;;10.28;100.00
31538;BME280;18147;51.952;6.146;2022-10-23T04:19:58;101163.09;;;10.28;100.00
31538;BME280;18147;51.952;6.146;2022-10-23T04:22:25;101155.88;;;10.30;100.00
31538;BME280;18147;51.952;6.146;2022-10-23T04:24:50;101148.19;;;10.08;100.00
31538;BME280;18147;51.952;6.146;2022-10-23T04:27:17;101147.78;;;10.16;100.00
31538;BME280;18147;51.952;6.146;2022-10-23T04:29:42;101148.97;;;10.42;100.00
31538;BME280;18147;51.952;6.146;2022-10-23T04:32:08;101140.47;;;10.19;100.00
31538;BME280;18147;51.952;6.146;2022-10-23T04:34:34;101136.59;;;10.41;100.00
31538;BME280;18147;51.952;6.146;2022-10-23T04:37:01;101133.09;;;10.24;100.00
31538;BME280;18147;51.952;6.146;2022-10-23T04:39:26;101140.16;;;10.25;100.00
31538;BME280;18147;51.952;6.146;2022-10-23T04:41:51;101143.16;;;10.35;100.00
31538;BME280;18147;51.952;6.146;2022-10-23T04:44:19;101134.72;;;10.27;100.00
31538;BME280;18147;51.952;6.146;2022-10-23T04:46:45;101139.16;;;10.42;100.00
31538;BME280;18147;51.952;6.146;2022-10-23T04:49:10;101129.56;;;10.24;100.00
31538;BME280;18147;51.952;6.146;2022-10-23T04:51:45;101123.97;;;10.58;100.00
31538;BME280;18147;51.952;6.146;2022-10-23T04:54:37;101124.06;;;10.87;100.00
31538;BME280;18147;51.952;6.146;2022-10-23T04:57:29;101131.66;;;10.79;100.00
31538;BME280;18147;51.952;6.146;2022-10-23T04:59:58;101121.38;;;10.73;100.00
31538;BME280;18147;51.952;6.146;2022-10-23T05:02:24;101121.56;;;10.84;100.00
31538;BME280;18147;51.952;6.146;2022-10-23T05:04:50;101122.03;;;11.21;100.00
31538;BME280;18147;51.952;6.146;2022-10-23T05:07:31;101109.31;;;11.24;100.00
31538;BME280;18147;51.952;6.146;2022-10-23T05:10:08;101114.56;;;11.54;100.00
31538;BME280;18147;51.952;6.146;2022-10-23T05:12:43;101111.31;;;11.63;100.00
31538;BME280;18147;51.952;6.146;2022-10-23T05:15:08;101109.31;;;11.53;100.00
31538;BME280;18147;51.952;6.146;2022-10-23T05:17:36;101099.22;;;11.58;100.00
31538;BME280;18147;51.952;6.146;2022-10-23T05:20:06;101085.75;;;11.59;100.00
31538;BME280;18147;51.952;6.146;2022-10-23T05:22:35;101091.19;;;11.58;100.00
31538;BME280;18147;51.952;6.146;2022-10-23T05:25:05;101084.81;;;11.75;100.00
31538;BME280;18147;51.952;6.146;2022-10-23T05:27:32;101082.94;;;11.89;100.00
31538;BME280;18147;51.952;6.146;2022-10-23T05:29:57;101092.78;;;11.89;100.00
31538;BME280;18147;51.952;6.146;2022-10-23T05:32:26;101098.34;;;11.86;100.00
31538;BME280;18147;51.952;6.146;2022-10-23T05:34:54;101088.81;;;12.09;100.00
31538;BME280;18147;51.952;6.146;2022-10-23T05:37:23;101089.78;;;12.08;100.00
31538;BME280;18147;51.952;6.146;2022-10-23T05:40:00;101103.91;;;12.10;100.00
31538;BME280;18147;51.952;6.146;2022-10-23T05:42:25;101088.25;;;12.04;100.00
31538;BME280;18147;51.952;6.146;2022-10-23T05:44:51;101090.88;;;12.18;100.00
31538;BME280;18147;51.952;6.146;2022-10-23T05:47:36;101085.13;;;12.24;100.00
31538;BME280;18147;51.952;6.146;2022-10-23T05:50:14;101092.75;;;12.30;100.00
31538;BME280;18147;51.952;6.146;2022-10-23T05:53:02;101085.63;;;12.43;100.00
31538;BME280;18147;51.952;6.146;2022-10-23T05:55:46;101078.38;;;12.46;100.00
31538;BME280;18147;51.952;6.146;2022-10-23T05:58:30;101087.88;;;12.50;100.00
31538;BME280;18147;51.952;6.146;2022-10-23T06:01:05;101086.94;;;12.51;100.00
31538;BME280;18147;51.952;6.146;2022-10-23T06:03:52;101080.63;;;12.52;100.00
31538;BME280;18147;51.952;6.146;2022-10-23T06:06:21;101084.38;;;12.62;100.00
31538;BME280;18147;51.952;6.146;2022-10-23T06:08:48;101081.06;;;12.58;100.00
31538;BME280;18147;51.952;6.146;2022-10-23T06:11:14;101080.84;;;12.61;100.00
31538;BME280;18147;51.952;6.146;2022-10-23T06:13:45;101075.69;;;12.58;100.00
31538;BME280;18147;51.952;6.146;2022-10-23T06:16:19;101076.13;;;12.65;100.00
31538;BME280;18147;51.952;6.146;2022-10-23T06:18:45;101069.06;;;12.64;100.00
31538;BME280;18147;51.952;6.146;2022-10-23T06:21:14;101070.78;;;12.65;100.00
31538;BME280;18147;51.952;6.146;2022-10-23T06:23:41;101067.91;;;12.68;100.00
31538;BME280;18147;51.952;6.146;2022-10-23T06:26:27;101069.19;;;12.62;100.00
31538;BME280;18147;51.952;6.146;2022-10-23T06:29:02;101071.56;;;12.67;100.00
31538;BME280;18147;51.952;6.146;2022-10-23T06:31:28;101065.34;;;12.66;100.00
31538;BME280;18147;51.952;6.146;2022-10-23T06:33:56;101055.81;;;12.62;100.00
31538;BME280;18147;51.952;6.146;2022-10-23T06:36:22;101054.75;;;12.78;100.00
31538;BME280;18147;51.952;6.146;2022-10-23T06:38:49;101043.31;;;12.76;100.00
31538;BME280;18147;51.952;6.146;2022-10-23T06:41:20;101041.50;;;12.76;100.00
31538;BME280;18147;51.952;6.146;2022-10-23T06:43:52;101043.53;;;12.85;100.00
31538;BME280;18147;51.952;6.146;2022-10-23T06:46:40;101045.13;;;12.88;100.00
31538;BME280;18147;51.952;6.146;2022-10-23T06:49:25;101045.22;;;12.86;100.00
31538;BME280;18147;51.952;6.146;2022-10-23T06:51:51;101042.25;;;12.91;100.00
31538;BME280;18147;51.952;6.146;2022-10-23T06:54:20;101041.03;;;12.95;100.00
31538;BME280;18147;51.952;6.146;2022-10-23T06:56:48;101039.88;;;12.99;100.00
31538;BME280;18147;51.952;6.146;2022-10-23T06:59:17;101043.94;;;13.05;100.00
31538;BME280;18147;51.952;6.146;2022-10-23T07:01:44;101049.41;;;13.03;100.00
31538;BME280;18147;51.952;6.146;2022-10-23T07:04:09;101048.09;;;13.09;100.00
31538;BME280;18147;51.952;6.146;2022-10-23T07:06:39;101047.91;;;13.12;100.00
31538;BME280;18147;51.952;6.146;2022-10-23T07:09:05;101035.47;;;13.11;100.00
31538;BME280;18147;51.952;6.146;2022-10-23T07:11:54;101038.38;;;13.20;100.00
31538;BME280;18147;51.952;6.146;2022-10-23T07:14:26;101035.91;;;13.17;100.00
31538;BME280;18147;51.952;6.146;2022-10-23T07:16:52;101030.13;;;13.24;100.00
31538;BME280;18147;51.952;6.146;2022-10-23T07:19:19;101030.00;;;13.25;100.00
31538;BME280;18147;51.952;6.146;2022-10-23T07:21:55;101032.59;;;13.27;100.00
31538;BME280;18147;51.952;6.146;2022-10-23T07:24:32;101044.03;;;13.29;100.00
31538;BME280;18147;51.952;6.146;2022-10-23T07:27:03;101030.22;;;13.35;100.00
31538;BME280;18147;51.952;6.146;2022-10-23T07:29:29;101020.13;;;13.38;100.00
31538;BME280;18147;51.952;6.146;2022-10-23T07:31:55;101024.94;;;13.46;100.00
31538;BME280;18147;51.952;6.146;2022-10-23T07:34:31;101022.38;;;13.44;100.00
31538;BME280;18147;51.952;6.146;2022-10-23T07:37:15;101023.00;;;13.48;100.00
31538;BME280;18147;51.952;6.146;2022-10-23T07:39:41;101023.13;;;13.46;100.00
31538;BME280;18147;51.952;6.146;2022-10-23T07:42:08;101023.22;;;13.45;100.00
31538;BME280;18147;51.952;6.146;2022-10-23T07:44:34;101023.75;;;13.50;100.00
31538;BME280;18147;51.952;6.146;2022-10-23T07:47:01;101023.66;;;13.52;100.00
31538;BME280;18147;51.952;6.146;2022-10-23T07:49:26;101016.47;;;13.52;100.00
31538;BME280;18147;51.952;6.146;2022-10-23T07:51:52;101006.38;;;13.56;100.00
31538;BME280;18147;51.952;6.146;2022-10-23T07:54:18;101009.91;;;13.56;100.00
31538;BME280;18147;51.952;6.146;2022-10-23T07:57:10;101011.50;;;13.59;100.00
31538;BME280;18147;51.952;6.146;2022-10-23T07:59:44;101005.28;;;13.58;100.00
31538;BME280;18147;51.952;6.146;2022-10-23T08:02:15;100999.94;;;13.58;100.00
31538;BME280;18147;51.952;6.146;2022-10-23T08:04:41;100997.78;;;13.63;100.00
31538;BME280;18147;51.952;6.146;2022-10-23T08:07:22;101002.41;;;13.61;100.00
31538;BME280;18147;51.952;6.146;2022-10-23T08:09:49;101002.06;;;13.66;100.00
31538;BME280;18147;51.952;6.146;2022-10-23T08:12:15;101007.63;;;13.63;100.00
31538;BME280;18147;51.952;6.146;2022-10-23T08:14:40;101002.41;;;13.61;100.00
31538;BME280;18147;51.952;6.146;2022-10-23T08:17:06;101003.34;;;13.60;100.00
31538;BME280;18147;51.952;6.146;2022-10-23T08:20:00;101002.16;;;13.64;100.00
31538;BME280;18147;51.952;6.146;2022-10-23T08:22:31;100999.13;;;13.69;100.00
31538;BME280;18147;51.952;6.146;2022-10-23T08:24:57;101009.53;;;13.73;100.00
31538;BME280;18147;51.952;6.146;2022-10-23T08:27:23;100989.19;;;13.71;100.00
31538;BME280;18147;51.952;6.146;2022-10-23T08:29:49;100994.41;;;13.72;100.00
31538;BME280;18147;51.952;6.146;2022-10-23T08:32:14;100992.25;;;13.78;100.00
31538;BME280;18147;51.952;6.146;2022-10-23T08:34:50;100994.06;;;13.77;100.00
31538;BME280;18147;51.952;6.146;2022-10-23T08:37:16;100984.94;;;13.80;100.00
31538;BME280;18147;51.952;6.146;2022-10-23T08:39:41;100979.16;;;13.86;100.00
31538;BME280;18147;51.952;6.146;2022-10-23T08:42:22;100970.63;;;13.92;100.00
31538;BME280;18147;51.952;6.146;2022-10-23T08:45:03;100967.47;;;13.98;100.00
31538;BME280;18147;51.952;6.146;2022-10-23T08:47:41;100969.59;;;14.06;100.00
31538;BME280;18147;51.952;6.146;2022-10-23T08:50:37;100966.53;;;14.10;100.00
31538;BME280;18147;51.952;6.146;2022-10-23T08:55:42;100960.47;;;14.19;100.00
31538;BME280;18147;51.952;6.146;2022-10-23T08:58:14;100960.63;;;14.29;100.00
31538;BME280;18147;51.952;6.146;2022-10-23T09:00:43;100954.91;;;14.34;100.00
31538;BME280;18147;51.952;6.146;2022-10-23T09:03:11;100947.72;;;14.34;100.00
31538;BME280;18147;51.952;6.146;2022-10-23T09:16:41;100935.94;;;14.59;100.00
31538;BME280;18147;51.952;6.146;2022-10-23T09:19:18;100934.00;;;14.72;100.00
31538;BME280;18147;51.952;6.146;2022-10-23T09:21:46;100935.00;;;14.83;100.00
31538;BME280;18147;51.952;6.146;2022-10-23T09:24:15;100926.09;;;14.82;100.00
31538;BME280;18147;51.952;6.146;2022-10-23T09:26:44;100914.97;;;14.87;100.00
31538;BME280;18147;51.952;6.146;2022-10-23T09:29:52;100905.69;;;14.91;100.00
31538;BME280;18147;51.952;6.146;2022-10-23T09:32:09;100902.38;;;14.98;100.00
31538;BME280;18147;51.952;6.146;2022-10-23T09:34:34;100908.50;;;14.89;100.00
31538;BME280;18147;51.952;6.146;2022-10-23T09:37:22;100907.03;;;14.85;100.00
31538;BME280;18147;51.952;6.146;2022-10-23T09:39:48;100910.19;;;14.90;100.00
31538;BME280;18147;51.952;6.146;2022-10-23T09:42:24;100909.63;;;14.87;100.00
31538;BME280;18147;51.952;6.146;2022-10-23T09:44:52;100912.66;;;14.93;100.00
31538;BME280;18147;51.952;6.146;2022-10-23T09:47:20;100913.25;;;14.97;100.00
31538;BME280;18147;51.952;6.146;2022-10-23T09:49:53;100911.78;;;14.93;100.00
31538;BME280;18147;51.952;6.146;2022-10-23T09:52:31;100907.50;;;14.90;100.00
31538;BME280;18147;51.952;6.146;2022-10-23T09:55:00;100905.19;;;14.86;100.00
31538;BME280;18147;51.952;6.146;2022-10-23T10:00:16;100889.06;;;15.08;100.00
31538;BME280;18147;51.952;6.146;2022-10-23T10:02:53;100881.59;;;15.23;100.00
31538;BME280;18147;51.952;6.146;2022-10-23T10:05:41;100873.44;;;15.45;100.00
31538;BME280;18147;51.952;6.146;2022-10-23T10:08:38;100879.41;;;15.49;100.00
31538;BME280;18147;51.952;6.146;2022-10-23T10:11:29;100877.97;;;15.45;100.00
31538;BME280;18147;51.952;6.146;2022-10-23T10:16:43;100854.13;;;15.51;100.00
31538;BME280;18147;51.952;6.146;2022-10-23T10:30:59;100853.41;;;15.82;100.00
31538;BME280;18147;51.952;6.146;2022-10-23T10:33:36;100843.13;;;15.87;100.00
31538;BME280;18147;51.952;6.146;2022-10-23T10:38:35;100838.91;;;15.94;100.00
31538;BME280;18147;51.952;6.146;2022-10-23T10:44:11;100822.06;;;15.92;100.00
31538;BME280;18147;51.952;6.146;2022-10-23T10:46:57;100821.19;;;15.91;100.00
31538;BME280;18147;51.952;6.146;2022-10-23T10:49:33;100826.16;;;15.96;100.00
31538;BME280;18147;51.952;6.146;2022-10-23T10:52:26;100809.97;;;16.07;100.00
31538;BME280;18147;51.952;6.146;2022-10-23T10:55:18;100802.34;;;16.12;100.00
31538;BME280;18147;51.952;6.146;2022-10-23T11:00:58;100790.66;;;16.23;100.00
31538;BME280;18147;51.952;6.146;2022-10-23T11:03:31;100768.81;;;16.26;100.00
31538;BME280;18147;51.952;6.146;2022-10-23T11:05:59;100763.59;;;16.24;100.00
31538;BME280;18147;51.952;6.146;2022-10-23T11:08:37;100744.22;;;16.30;100.00
31538;BME280;18147;51.952;6.146;2022-10-23T11:11:26;100745.22;;;16.39;100.00
31538;BME280;18147;51.952;6.146;2022-10-23T11:13:55;100750.63;;;16.39;100.00
31538;BME280;18147;51.952;6.146;2022-10-23T11:19:00;100729.84;;;16.61;100.00
31538;BME280;18147;51.952;6.146;2022-10-23T11:21:41;100739.63;;;16.52;100.00
31538;BME280;18147;51.952;6.146;2022-10-23T11:36:12;100727.66;;;17.04;100.00
31538;BME280;18147;51.952;6.146;2022-10-23T11:38:42;100728.66;;;17.03;100.00
31538;BME280;18147;51.952;6.146;2022-10-23T11:41:22;100721.69;;;17.20;100.00
31538;BME280;18147;51.952;6.146;2022-10-23T11:48:50;100689.72;;;17.54;100.00
31538;BME280;18147;51.952;6.146;2022-10-23T11:59:35;100667.25;;;17.64;100.00
31538;BME280;18147;51.952;6.146;2022-10-23T12:02:29;100666.41;;;17.63;100.00
31538;BME280;18147;51.952;6.146;2022-10-23T12:04:58;100658.41;;;17.81;100.00
31538;BME280;18147;51.952;6.146;2022-10-23T12:07:29;100649.28;;;17.92;100.00
31538;BME280;18147;51.952;6.146;2022-10-23T12:10:02;100644.47;;;17.85;100.00
31538;BME280;18147;51.952;6.146;2022-10-23T12:12:32;100642.50;;;17.88;100.00
31538;BME280;18147;51.952;6.146;2022-10-23T12:15:18;100644.69;;;18.02;100.00
31538;BME280;18147;51.952;6.146;2022-10-23T12:17:46;100642.09;;;18.10;100.00
31538;BME280;18147;51.952;6.146;2022-10-23T12:20:27;100639.69;;;18.07;98.79
31538;BME280;18147;51.952;6.146;2022-10-23T12:34:12;100618.75;;;18.19;97.43
31538;BME280;18147;51.952;6.146;2022-10-23T12:39:28;100613.25;;;18.10;98.55
31538;BME280;18147;51.952;6.146;2022-10-23T12:42:00;100612.97;;;18.14;98.56
31538;BME280;18147;51.952;6.146;2022-10-23T12:44:26;100620.44;;;18.20;98.26
31538;BME280;18147;51.952;6.146;2022-10-23T12:46:56;100625.78;;;18.29;98.71
31538;BME280;18147;51.952;6.146;2022-10-23T12:49:24;100619.84;;;18.44;98.19
31538;BME280;18147;51.952;6.146;2022-10-23T12:52:04;100607.19;;;18.44;97.53
31538;BME280;18147;51.952;6.146;2022-10-23T12:54:32;100592.22;;;18.32;98.13
31538;BME280;18147;51.952;6.146;2022-10-23T12:56:58;100593.31;;;18.39;99.31
31538;BME280;18147;51.952;6.146;2022-10-23T12:59:26;100596.69;;;18.41;97.61
31538;BME280;18147;51.952;6.146;2022-10-23T13:01:53;100594.53;;;18.45;97.79
31538;BME280;18147;51.952;6.146;2022-10-23T13:04:30;100580.50;;;18.41;99.33
31538;BME280;18147;51.952;6.146;2022-10-23T13:06:58;100580.34;;;18.60;98.03
31538;BME280;18147;51.952;6.146;2022-10-23T13:09:31;100586.28;;;18.64;97.94
31538;BME280;18147;51.952;6.146;2022-10-23T13:12:26;100584.59;;;18.63;99.08
31538;BME280;18147;51.952;6.146;2022-10-23T13:20:10;100573.03;;;18.53;99.45
31538;BME280;18147;51.952;6.146;2022-10-23T13:22:45;100572.41;;;18.59;99.40
31538;BME280;18147;51.952;6.146;2022-10-23T13:25:31;100562.66;;;18.84;99.40
31538;BME280;18147;51.952;6.146;2022-10-23T13:30:37;100567.00;;;18.59;99.87
31538;BME280;18147;51.952;6.146;2022-10-23T13:33:24;100555.69;;;18.37;100.00
31538;BME280;18147;51.952;6.146;2022-10-23T13:38:36;100538.75;;;18.35;98.23
31538;BME280;18147;51.952;6.146;2022-10-23T13:41:04;100523.78;;;18.41;99.93
31538;BME280;18147;51.952;6.146;2022-10-23T13:43:32;100524.41;;;18.35;99.80
31538;BME280;18147;51.952;6.146;2022-10-23T13:45:59;100523.78;;;18.41;99.77
31538;BME280;18147;51.952;6.146;2022-10-23T13:48:25;100522.78;;;18.42;98.84
31538;BME280;18147;51.952;6.146;2022-10-23T13:50:51;100531.13;;;18.49;100.00
31538;BME280;18147;51.952;6.146;2022-10-23T13:53:16;100518.84;;;18.36;97.24
31538;BME280;18147;51.952;6.146;2022-10-23T13:55:44;100522.41;;;18.37;99.06
31538;BME280;18147;51.952;6.146;2022-10-23T13:58:10;100520.25;;;18.41;98.11
31538;BME280;18147;51.952;6.146;2022-10-23T14:00:36;100501.69;;;18.37;97.55
31538;BME280;18147;51.952;6.146;2022-10-23T14:03:03;100492.19;;;18.33;98.82
31538;BME280;18147;51.952;6.146;2022-10-23T14:05:29;100492.19;;;18.33;96.88
31538;BME280;18147;51.952;6.146;2022-10-23T14:07:55;100485.41;;;18.29;96.95
31538;BME280;18147;51.952;6.146;2022-10-23T14:10:20;100472.91;;;18.28;96.81
31538;BME280;18147;51.952;6.146;2022-10-23T14:12:46;100469.03;;;18.31;96.48
31538;BME280;18147;51.952;6.146;2022-10-23T14:15:12;100469.50;;;18.26;95.71
31538;BME280;18147;51.952;6.146;2022-10-23T14:17:37;100474.91;;;18.26;97.24
31538;BME280;18147;51.952;6.146;2022-10-23T14:20:04;100463.72;;;18.21;96.86
31538;BME280;18147;51.952;6.146;2022-10-23T14:22:30;100455.41;;;18.15;98.08
31538;BME280;18147;51.952;6.146;2022-10-23T14:24:55;100457.09;;;18.16;97.16
31538;BME280;18147;51.952;6.146;2022-10-23T14:27:20;100465.53;;;18.13;97.81
31538;BME280;18147;51.952;6.146;2022-10-23T14:29:46;100463.69;;;18.13;97.57
31538;BME280;18147;51.952;6.146;2022-10-23T14:32:11;100466.59;;;18.20;98.44
31538;BME280;18147;51.952;6.146;2022-10-23T14:34:41;100472.16;;;18.18;99.21
31538;BME280;18147;51.952;6.146;2022-10-23T14:37:08;100463.81;;;18.11;97.73
31538;BME280;18147;51.952;6.146;2022-10-23T14:39:33;100460.44;;;18.09;98.38
31538;BME280;18147;51.952;6.146;2022-10-23T14:41:59;100455.59;;;18.13;99.24
31538;BME280;18147;51.952;6.146;2022-10-23T14:44:24;100450.09;;;18.05;99.32
31538;BME280;18147;51.952;6.146;2022-10-23T14:46:50;100444.31;;;18.00;99.77
31538;BME280;18147;51.952;6.146;2022-10-23T14:49:16;100432.59;;;18.09;98.47
31538;BME280;18147;51.952;6.146;2022-10-23T14:51:41;100430.00;;;17.99;99.38
31538;BME280;18147;51.952;6.146;2022-10-23T14:54:07;100428.59;;;17.95;99.70
31538;BME280;18147;51.952;6.146;2022-10-23T14:56:35;100438.16;;;17.90;100.00
31538;BME280;18147;51.952;6.146;2022-10-23T14:59:01;100433.59;;;17.90;100.00
31538;BME280;18147;51.952;6.146;2022-10-23T15:01:30;100440.84;;;17.90;100.00
31538;BME280;18147;51.952;6.146;2022-10-23T15:03:57;100432.53;;;17.83;100.00